createdAt,value
2016-07-20T00:00:28.367Z,0
2016-07-20T00:01:28.372Z,0
2016-07-20T00:02:28.388Z,0
2016-07-20T00:03:27.673Z,0
2016-07-20T00:04:29.101Z,0
2016-07-20T00:05:28.412Z,0
2016-07-20T00:06:28.409Z,0
2016-07-20T00:07:30.930Z,0
2016-07-20T00:08:29.141Z,0
2016-07-20T00:09:31.157Z,0
2016-07-20T00:10:27.727Z,0
2016-07-20T00:11:28.444Z,0
2016-07-20T00:12:28.461Z,0
2016-07-20T00:13:28.450Z,0
2016-07-20T00:14:29.883Z,0
2016-07-20T00:15:29.175Z,0
2016-07-20T00:16:28.488Z,0
2016-07-20T00:17:28.485Z,0
2016-07-20T00:18:30.052Z,0
2016-07-20T00:19:27.798Z,0
2016-07-20T00:20:29.001Z,0
2016-07-20T00:21:29.235Z,0
2016-07-20T00:22:29.236Z,0
2016-07-20T00:23:28.537Z,0
2016-07-20T00:24:28.538Z,0
2016-07-20T00:25:29.249Z,0
2016-07-20T00:26:29.260Z,0
2016-07-20T00:27:28.557Z,0
2016-07-20T00:28:28.564Z,0
2016-07-20T00:29:29.987Z,0
2016-07-20T00:30:27.927Z,0
2016-07-20T00:31:29.537Z,0
2016-07-20T00:32:27.890Z,0
2016-07-20T00:33:27.894Z,0
2016-07-20T00:34:28.611Z,0
2016-07-20T00:35:29.321Z,0
2016-07-20T00:36:28.628Z,0
2016-07-20T00:37:30.050Z,0
2016-07-20T00:38:28.689Z,0
2016-07-20T00:39:28.648Z,0
2016-07-20T00:40:30.033Z,0
2016-07-20T00:41:30.081Z,0
2016-07-20T00:42:29.670Z,0
2016-07-20T00:43:28.674Z,0
2016-07-20T00:44:28.687Z,0
2016-07-20T00:45:28.688Z,0
2016-07-20T00:46:28.700Z,0
2016-07-20T00:47:29.463Z,0
2016-07-20T00:48:28.708Z,0
2016-07-20T00:49:30.136Z,0
2016-07-20T00:50:28.732Z,0
2016-07-20T00:51:30.559Z,0
2016-07-20T00:52:29.453Z,0
2016-07-20T00:53:28.946Z,0
2016-07-20T00:54:28.048Z,0
2016-07-20T00:55:28.761Z,0
2016-07-20T00:56:29.479Z,0
2016-07-20T00:57:28.778Z,0
2016-07-20T00:58:29.496Z,0
2016-07-20T00:59:28.792Z,0
2016-07-20T01:00:28.793Z,0
2016-07-20T01:01:28.100Z,0
2016-07-20T01:02:28.103Z,0
2016-07-20T01:03:28.122Z,0
2016-07-20T01:04:29.131Z,0
2016-07-20T01:05:28.842Z,0
2016-07-20T01:06:29.550Z,0
2016-07-20T01:07:29.556Z,0
2016-07-20T01:08:29.560Z,0
2016-07-20T01:09:28.157Z,0
2016-07-20T01:10:30.286Z,0
2016-07-20T01:11:30.293Z,0
2016-07-20T01:12:28.888Z,0
2016-07-20T01:13:29.946Z,0
2016-07-20T01:14:28.900Z,0
2016-07-20T01:15:29.505Z,0
2016-07-20T01:16:28.924Z,0
2016-07-20T01:17:28.211Z,0
2016-07-20T01:18:30.345Z,0
2016-07-20T01:19:28.233Z,0
2016-07-20T01:20:28.939Z,0
2016-07-20T01:21:28.247Z,0
2016-07-20T01:22:30.383Z,0
2016-07-20T01:23:28.262Z,0
2016-07-20T01:24:43.853Z,0
2016-07-20T01:25:28.273Z,0
2016-07-20T01:26:31.491Z,0
2016-07-20T01:27:28.991Z,0
2016-07-20T01:28:29.009Z,0
2016-07-20T01:29:28.297Z,0
2016-07-20T01:30:29.068Z,0
2016-07-20T01:31:29.740Z,0
2016-07-20T01:32:29.739Z,0
2016-07-20T01:33:29.745Z,0
2016-07-20T01:34:29.746Z,0
2016-07-20T01:35:29.058Z,0
2016-07-20T01:36:29.061Z,0
2016-07-20T01:37:30.666Z,0
2016-07-20T01:38:29.130Z,0
2016-07-20T01:39:30.180Z,0
2016-07-20T01:40:29.093Z,0
2016-07-20T01:41:30.512Z,0
2016-07-20T01:42:29.814Z,0
2016-07-20T01:43:29.820Z,0
2016-07-20T01:44:29.823Z,0
2016-07-20T01:45:29.834Z,0
2016-07-20T01:46:29.837Z,0
2016-07-20T01:47:28.457Z,0
2016-07-20T01:48:30.779Z,0
2016-07-20T01:49:29.152Z,0
2016-07-20T01:50:29.164Z,0
2016-07-20T01:51:29.212Z,0
2016-07-20T01:52:29.177Z,0
2016-07-20T01:53:29.887Z,0
2016-07-20T01:54:30.610Z,0
2016-07-20T01:55:28.492Z,0
2016-07-20T01:56:29.911Z,0
2016-07-20T01:57:30.373Z,0
2016-07-20T01:58:28.507Z,0
2016-07-20T01:59:30.657Z,0
2016-07-20T02:00:28.528Z,0
2016-07-20T02:01:30.362Z,0
2016-07-20T02:02:29.248Z,0
2016-07-20T02:03:29.255Z,0
2016-07-20T02:04:29.264Z,0
2016-07-20T02:05:29.978Z,0
2016-07-20T02:06:29.286Z,0
2016-07-20T02:07:28.586Z,0
2016-07-20T02:08:29.584Z,0
2016-07-20T02:09:28.591Z,0
2016-07-20T02:10:30.558Z,0
2016-07-20T02:11:30.016Z,0
2016-07-20T02:12:30.286Z,0
2016-07-20T02:13:30.034Z,0
2016-07-20T02:14:30.040Z,0
2016-07-20T02:15:29.342Z,0
2016-07-20T02:16:30.052Z,0
2016-07-20T02:17:30.060Z,0
2016-07-20T02:18:28.657Z,0
2016-07-20T02:19:28.712Z,0
2016-07-20T02:20:30.791Z,0
2016-07-20T02:21:31.337Z,0
2016-07-20T02:22:30.807Z,0
2016-07-20T02:23:30.807Z,0
2016-07-20T02:24:44.279Z,0
2016-07-20T02:25:29.419Z,0
2016-07-20T02:26:29.412Z,0
2016-07-20T02:27:30.840Z,0
2016-07-20T02:28:29.435Z,0
2016-07-20T02:29:30.151Z,0
2016-07-20T02:30:30.156Z,0
2016-07-20T02:31:30.208Z,0
2016-07-20T02:32:28.751Z,0
2016-07-20T02:33:28.761Z,0
2016-07-20T02:34:28.765Z,0
2016-07-20T02:35:28.783Z,0
2016-07-20T02:36:28.784Z,0
2016-07-20T02:37:28.798Z,0
2016-07-20T02:38:30.259Z,0
2016-07-20T02:39:29.508Z,0
2016-07-20T02:40:29.521Z,0
2016-07-20T02:41:30.481Z,0
2016-07-20T02:42:29.531Z,0
2016-07-20T02:43:31.622Z,0
2016-07-20T02:44:30.253Z,0
2016-07-20T02:45:30.512Z,0
2016-07-20T02:46:28.867Z,0
2016-07-20T02:47:29.579Z,0
2016-07-20T02:48:29.574Z,0
2016-07-20T02:49:29.576Z,0
2016-07-20T02:50:30.352Z,0
2016-07-20T02:51:28.947Z,0
2016-07-20T02:52:29.300Z,0
2016-07-20T02:53:28.912Z,0
2016-07-20T02:54:45.148Z,0
2016-07-20T02:55:30.332Z,0
2016-07-20T02:56:29.633Z,0
2016-07-20T02:57:29.647Z,0
2016-07-20T02:58:29.647Z,0
2016-07-20T02:59:29.649Z,0
2016-07-20T03:00:28.958Z,0
2016-07-20T03:01:29.667Z,0
2016-07-20T03:02:29.677Z,0
2016-07-20T03:03:30.308Z,0
2016-07-20T03:04:30.392Z,0
2016-07-20T03:05:31.195Z,0
2016-07-20T03:06:28.290Z,0
2016-07-20T03:07:30.917Z,0
2016-07-20T03:08:30.431Z,0
2016-07-20T03:09:30.437Z,0
2016-07-20T03:10:29.030Z,0
2016-07-20T03:11:29.741Z,0
2016-07-20T03:12:30.454Z,0
2016-07-20T03:13:29.756Z,0
2016-07-20T03:14:30.064Z,0
2016-07-20T03:15:31.180Z,0
2016-07-20T03:16:31.846Z,0
2016-07-20T03:17:29.080Z,0
2016-07-20T03:18:30.796Z,0
2016-07-20T03:19:29.083Z,0
2016-07-20T03:20:29.098Z,0
2016-07-20T03:21:31.237Z,0
2016-07-20T03:22:30.523Z,0
2016-07-20T03:23:29.827Z,0
2016-07-20T03:24:29.839Z,0
2016-07-20T03:25:30.043Z,0
2016-07-20T03:26:29.138Z,0
2016-07-20T03:27:29.143Z,0
2016-07-20T03:28:30.577Z,0
2016-07-20T03:29:30.780Z,0
2016-07-20T03:30:29.882Z,0
2016-07-20T03:31:28.472Z,0
2016-07-20T03:32:31.349Z,0
2016-07-20T03:33:29.895Z,0
2016-07-20T03:34:30.617Z,0
2016-07-20T03:35:29.210Z,0
2016-07-20T03:36:29.264Z,0
2016-07-20T03:37:29.926Z,0
2016-07-20T03:38:31.713Z,0
2016-07-20T03:39:29.935Z,0
2016-07-20T03:40:30.708Z,0
2016-07-20T03:41:30.658Z,0
2016-07-20T03:42:30.718Z,0
2016-07-20T03:43:30.677Z,0
2016-07-20T03:44:29.267Z,0
2016-07-20T03:45:29.984Z,0
2016-07-20T03:46:29.989Z,0
2016-07-20T03:47:30.753Z,0
2016-07-20T03:48:30.007Z,5
2016-07-20T03:49:31.938Z,5
2016-07-20T03:50:29.313Z,5
2016-07-20T03:51:30.874Z,5
2016-07-20T03:52:30.737Z,5
2016-07-20T03:53:30.038Z,5
2016-07-20T03:54:30.051Z,5
2016-07-20T03:55:30.764Z,5
2016-07-20T03:56:29.353Z,5
2016-07-20T03:57:29.361Z,5
2016-07-20T03:58:30.784Z,5
2016-07-20T03:59:30.089Z,5
2016-07-20T04:00:32.564Z,5
2016-07-20T04:01:30.809Z,5
2016-07-20T04:02:30.805Z,10
2016-07-20T04:03:30.114Z,10
2016-07-20T04:04:30.823Z,10
2016-07-20T04:05:30.830Z,10
2016-07-20T04:06:30.841Z,10
2016-07-20T04:07:30.847Z,10
2016-07-20T04:08:31.564Z,10
2016-07-20T04:09:29.458Z,10
2016-07-20T04:10:30.161Z,10
2016-07-20T04:11:31.875Z,10
2016-07-20T04:12:30.879Z,10
2016-07-20T04:13:31.598Z,10
2016-07-20T04:14:29.481Z,15
2016-07-20T04:15:29.490Z,15
2016-07-20T04:16:30.916Z,15
2016-07-20T04:17:30.913Z,15
2016-07-20T04:18:30.231Z,15
2016-07-20T04:19:29.515Z,15
2016-07-20T04:20:32.128Z,15
2016-07-20T04:21:31.653Z,15
2016-07-20T04:22:31.877Z,15
2016-07-20T04:23:29.565Z,15
2016-07-20T04:24:31.673Z,20
2016-07-20T04:25:30.984Z,20
2016-07-20T04:26:30.273Z,20
2016-07-20T04:27:31.694Z,20
2016-07-20T04:28:30.994Z,20
2016-07-20T04:29:31.712Z,20
2016-07-20T04:30:31.025Z,20
2016-07-20T04:31:32.138Z,20
2016-07-20T04:32:30.313Z,25
2016-07-20T04:33:31.690Z,25
2016-07-20T04:34:31.036Z,25
2016-07-20T04:35:30.543Z,25
2016-07-20T04:36:30.345Z,25
2016-07-20T04:37:31.061Z,25
2016-07-20T04:38:31.778Z,25
2016-07-20T04:39:29.710Z,25
2016-07-20T04:40:31.080Z,30
2016-07-20T04:41:30.394Z,30
2016-07-20T04:42:32.619Z,30
2016-07-20T04:43:30.397Z,30
2016-07-20T04:44:30.795Z,30
2016-07-20T04:45:29.711Z,35
2016-07-20T04:46:31.129Z,35
2016-07-20T04:47:29.720Z,40
2016-07-20T04:48:29.724Z,40
2016-07-20T04:49:31.146Z,40
2016-07-20T04:50:30.468Z,40
2016-07-20T04:51:31.159Z,45
2016-07-20T04:52:30.471Z,45
2016-07-20T04:53:33.057Z,50
2016-07-20T04:54:31.236Z,65
2016-07-20T04:55:31.387Z,120
2016-07-20T04:56:30.504Z,100
2016-07-20T04:57:30.504Z,125
2016-07-20T04:58:31.215Z,340
2016-07-20T04:59:31.935Z,360
2016-07-20T05:00:30.522Z,370
2016-07-20T05:01:31.232Z,385
2016-07-20T05:02:29.832Z,395
2016-07-20T05:03:31.961Z,400
2016-07-20T05:04:31.846Z,410
2016-07-20T05:05:29.851Z,415
2016-07-20T05:06:31.521Z,430
2016-07-20T05:07:29.863Z,440
2016-07-20T05:08:30.581Z,450
2016-07-20T05:09:31.295Z,465
2016-07-20T05:10:32.019Z,465
2016-07-20T05:11:31.309Z,480
2016-07-20T05:12:31.315Z,485
2016-07-20T05:13:30.616Z,485
2016-07-20T05:14:32.041Z,490
2016-07-20T05:15:32.565Z,490
2016-07-20T05:16:31.357Z,495
2016-07-20T05:17:31.557Z,485
2016-07-20T05:18:32.070Z,505
2016-07-20T05:19:30.671Z,530
2016-07-20T05:20:31.388Z,530
2016-07-20T05:21:31.395Z,515
2016-07-20T05:22:30.700Z,525
2016-07-20T05:23:31.423Z,555
2016-07-20T05:24:31.425Z,565
2016-07-20T05:25:30.730Z,550
2016-07-20T05:26:31.938Z,560
2016-07-20T05:27:31.457Z,615
2016-07-20T05:28:30.804Z,650
2016-07-20T05:29:32.182Z,665
2016-07-20T05:30:32.458Z,685
2016-07-20T05:31:30.793Z,675
2016-07-20T05:32:30.094Z,660
2016-07-20T05:33:31.520Z,650
2016-07-20T05:34:32.237Z,635
2016-07-20T05:35:31.533Z,625
2016-07-20T05:36:30.845Z,620
2016-07-20T05:37:33.310Z,680
2016-07-20T05:38:30.861Z,720
2016-07-20T05:39:31.577Z,730
2016-07-20T05:40:30.935Z,760
2016-07-20T05:41:30.905Z,755
2016-07-20T05:42:30.197Z,740
2016-07-20T05:43:30.208Z,775
2016-07-20T05:44:30.930Z,800
2016-07-20T05:45:32.351Z,825
2016-07-20T05:46:30.950Z,845
2016-07-20T05:47:30.955Z,860
2016-07-20T05:48:32.576Z,850
2016-07-20T05:49:30.282Z,845
2016-07-20T05:50:31.009Z,860
2016-07-20T05:51:32.416Z,875
2016-07-20T05:52:30.414Z,870
2016-07-20T05:53:31.027Z,875
2016-07-20T05:54:29.625Z,865
2016-07-20T05:55:31.098Z,875
2016-07-20T05:56:31.767Z,885
2016-07-20T05:57:31.779Z,890
2016-07-20T05:58:30.370Z,910
2016-07-20T05:59:31.891Z,895
2016-07-20T06:00:31.117Z,870
2016-07-20T06:01:31.110Z,890
2016-07-20T06:02:32.541Z,895
2016-07-20T06:03:30.535Z,880
2016-07-20T06:04:30.440Z,935
2016-07-20T06:05:31.163Z,950
2016-07-20T06:06:30.471Z,920
2016-07-20T06:07:31.180Z,970
2016-07-20T06:08:31.216Z,1015
2016-07-20T06:09:30.501Z,1010
2016-07-20T06:10:32.570Z,995
2016-07-20T06:11:30.519Z,1015
2016-07-20T06:12:33.744Z,1060
2016-07-20T06:13:31.250Z,1080
2016-07-20T06:14:31.260Z,1085
2016-07-20T06:15:31.275Z,1100
2016-07-20T06:16:31.287Z,1105
2016-07-20T06:17:31.305Z,1090
2016-07-20T06:18:32.030Z,1095
2016-07-20T06:19:31.328Z,1120
2016-07-20T06:20:32.043Z,1115
2016-07-20T06:21:32.762Z,1090
2016-07-20T06:22:32.058Z,1095
2016-07-20T06:23:32.076Z,1140
2016-07-20T06:24:30.684Z,1115
2016-07-20T06:25:32.692Z,1105
2016-07-20T06:26:31.406Z,1130
2016-07-20T06:27:31.419Z,1150
2016-07-20T06:28:32.132Z,1220
2016-07-20T06:29:31.441Z,1270
2016-07-20T06:30:32.159Z,1210
2016-07-20T06:31:31.465Z,1175
2016-07-20T06:32:32.745Z,1160
2016-07-20T06:33:32.191Z,1135
2016-07-20T06:34:32.319Z,1135
2016-07-20T06:35:31.522Z,1075
2016-07-20T06:36:31.524Z,990
2016-07-20T06:37:31.550Z,1040
2016-07-20T06:38:30.843Z,1135
2016-07-20T06:39:31.563Z,1195
2016-07-20T06:40:30.917Z,1290
2016-07-20T06:41:30.874Z,1320
2016-07-20T06:42:32.306Z,1305
2016-07-20T06:43:32.827Z,1325
2016-07-20T06:44:33.080Z,1320
2016-07-20T06:45:32.535Z,1245
2016-07-20T06:46:30.234Z,1255
2016-07-20T06:47:30.246Z,1270
2016-07-20T06:48:32.379Z,1315
2016-07-20T06:49:31.684Z,1275
2016-07-20T06:50:31.924Z,1245
2016-07-20T06:51:31.706Z,1280
2016-07-20T06:52:32.427Z,1380
2016-07-20T06:53:32.438Z,1435
2016-07-20T06:54:33.787Z,1420
2016-07-20T06:55:33.179Z,1380
2016-07-20T06:56:34.853Z,1350
2016-07-20T06:57:32.491Z,1330
2016-07-20T06:58:31.633Z,1460
2016-07-20T06:59:31.096Z,1510
2016-07-20T07:00:31.817Z,1520
2016-07-20T07:01:31.127Z,1485
2016-07-20T07:02:31.133Z,1235
2016-07-20T07:03:32.558Z,1075
2016-07-20T07:04:33.286Z,1275
2016-07-20T07:05:33.247Z,1560
2016-07-20T07:06:33.319Z,1550
2016-07-20T07:07:32.197Z,1390
2016-07-20T07:08:31.922Z,1345
2016-07-20T07:09:32.652Z,1370
2016-07-20T07:10:33.368Z,1360
2016-07-20T07:11:31.966Z,1500
2016-07-20T07:12:31.257Z,1555
2016-07-20T07:13:31.994Z,1590
2016-07-20T07:14:32.701Z,1590
2016-07-20T07:15:32.015Z,1645
2016-07-20T07:16:33.242Z,1610
2016-07-20T07:17:31.335Z,1540
2016-07-20T07:18:32.910Z,1495
2016-07-20T07:19:33.485Z,1610
2016-07-20T07:20:32.013Z,1755
2016-07-20T07:21:32.791Z,1800
2016-07-20T07:22:31.421Z,1740
2016-07-20T07:23:32.112Z,1645
2016-07-20T07:24:32.834Z,1610
2016-07-20T07:25:32.132Z,1620
2016-07-20T07:26:32.189Z,1560
2016-07-20T07:27:32.954Z,1715
2016-07-20T07:28:32.939Z,1865
2016-07-20T07:29:32.993Z,1845
2016-07-20T07:30:32.198Z,1690
2016-07-20T07:31:32.919Z,1525
2016-07-20T07:32:33.641Z,1540
2016-07-20T07:33:32.943Z,1660
2016-07-20T07:34:32.252Z,1680
2016-07-20T07:35:32.265Z,1760
2016-07-20T07:36:32.279Z,1860
2016-07-20T07:37:32.999Z,1885
2016-07-20T07:38:34.043Z,1890
2016-07-20T07:39:31.606Z,1780
2016-07-20T07:40:33.025Z,1610
2016-07-20T07:41:32.339Z,1510
2016-07-20T07:42:30.935Z,1520
2016-07-20T07:43:33.072Z,1620
2016-07-20T07:44:32.384Z,1005
2016-07-20T07:45:32.388Z,260
2016-07-20T07:46:33.113Z,80
2016-07-20T07:47:33.121Z,70
2016-07-20T07:48:31.716Z,70
2016-07-20T07:49:33.243Z,70
2016-07-20T07:50:32.450Z,65
2016-07-20T07:51:33.008Z,85
2016-07-20T07:52:31.062Z,85
2016-07-20T07:53:34.766Z,80
2016-07-20T07:54:32.486Z,80
2016-07-20T07:55:31.785Z,80
2016-07-20T07:56:33.266Z,70
2016-07-20T07:57:33.966Z,60
2016-07-20T07:58:33.285Z,60
2016-07-20T07:59:33.228Z,60
2016-07-20T08:00:32.547Z,60
2016-07-20T08:01:32.538Z,60
2016-07-20T08:02:33.611Z,60
2016-07-20T08:03:33.268Z,60
2016-07-20T08:04:33.167Z,60
2016-07-20T08:05:32.571Z,80
2016-07-20T08:06:33.291Z,80
2016-07-20T08:07:32.597Z,65
2016-07-20T08:08:33.301Z,75
2016-07-20T08:09:32.624Z,80
2016-07-20T08:10:33.321Z,80
2016-07-20T08:11:33.333Z,80
2016-07-20T08:12:33.342Z,80
2016-07-20T08:13:34.497Z,75
2016-07-20T08:14:31.956Z,75
2016-07-20T08:15:34.078Z,75
2016-07-20T08:16:32.023Z,75
2016-07-20T08:17:32.676Z,75
2016-07-20T08:18:32.760Z,70
2016-07-20T08:19:33.403Z,70
2016-07-20T08:20:34.119Z,70
2016-07-20T08:21:33.414Z,65
2016-07-20T08:22:32.724Z,65
2016-07-20T08:23:32.735Z,65
2016-07-20T08:24:33.995Z,65
2016-07-20T08:25:32.751Z,65
2016-07-20T08:26:33.662Z,65
2016-07-20T08:27:32.767Z,85
2016-07-20T08:28:34.188Z,65
2016-07-20T08:29:33.486Z,60
2016-07-20T08:30:32.784Z,60
2016-07-20T08:31:33.501Z,60
2016-07-20T08:32:32.092Z,65
2016-07-20T08:33:33.524Z,75
2016-07-20T08:34:31.411Z,75
2016-07-20T08:35:34.702Z,60
2016-07-20T08:36:32.130Z,60
2016-07-20T08:37:33.748Z,60
2016-07-20T08:38:32.144Z,60
2016-07-20T08:39:33.574Z,60
2016-07-20T08:40:32.865Z,75
2016-07-20T08:41:33.583Z,75
2016-07-20T08:42:32.875Z,75
2016-07-20T08:43:32.260Z,70
2016-07-20T08:44:32.886Z,60
2016-07-20T08:45:32.903Z,60
2016-07-20T08:46:33.875Z,60
2016-07-20T08:47:33.692Z,60
2016-07-20T08:48:33.826Z,60
2016-07-20T08:49:33.627Z,65
2016-07-20T08:50:33.642Z,65
2016-07-20T08:51:32.955Z,70
2016-07-20T08:52:32.942Z,70
2016-07-20T08:53:34.377Z,70
2016-07-20T08:54:32.961Z,70
2016-07-20T08:55:35.256Z,75
2016-07-20T08:56:32.980Z,75
2016-07-20T08:57:32.184Z,75
2016-07-20T08:58:33.747Z,95
2016-07-20T08:59:32.530Z,90
2016-07-20T09:00:33.716Z,80
2016-07-20T09:01:32.312Z,80
2016-07-20T09:02:33.737Z,80
2016-07-20T09:03:34.450Z,80
2016-07-20T09:04:32.336Z,80
2016-07-20T09:05:33.048Z,85
2016-07-20T09:06:35.458Z,85
2016-07-20T09:07:33.771Z,85
2016-07-20T09:08:33.069Z,85
2016-07-20T09:09:34.498Z,85
2016-07-20T09:10:33.094Z,85
2016-07-20T09:11:34.509Z,85
2016-07-20T09:12:33.813Z,85
2016-07-20T09:13:32.409Z,85
2016-07-20T09:14:33.122Z,85
2016-07-20T09:15:34.558Z,85
2016-07-20T09:16:33.140Z,85
2016-07-20T09:17:33.135Z,85
2016-07-20T09:18:33.158Z,85
2016-07-20T09:19:33.163Z,85
2016-07-20T09:20:32.467Z,85
2016-07-20T09:21:33.199Z,85
2016-07-20T09:22:33.890Z,85
2016-07-20T09:23:33.916Z,85
2016-07-20T09:24:33.203Z,85
2016-07-20T09:25:33.208Z,85
2016-07-20T09:26:33.937Z,85
2016-07-20T09:27:34.635Z,90
2016-07-20T09:28:33.355Z,85
2016-07-20T09:29:34.901Z,95
2016-07-20T09:30:33.250Z,90
2016-07-20T09:31:33.270Z,85
2016-07-20T09:32:32.558Z,85
2016-07-20T09:33:33.274Z,85
2016-07-20T09:34:33.995Z,100
2016-07-20T09:35:33.991Z,100
2016-07-20T09:36:33.297Z,100
2016-07-20T09:37:34.710Z,80
2016-07-20T09:38:33.308Z,85
2016-07-20T09:39:33.615Z,80
2016-07-20T09:40:34.026Z,85
2016-07-20T09:41:33.274Z,85
2016-07-20T09:42:34.044Z,80
2016-07-20T09:43:33.394Z,80
2016-07-20T09:44:32.646Z,85
2016-07-20T09:45:33.360Z,85
2016-07-20T09:46:33.364Z,85
2016-07-20T09:47:34.084Z,85
2016-07-20T09:48:34.819Z,100
2016-07-20T09:49:32.681Z,85
2016-07-20T09:50:34.585Z,85
2016-07-20T09:51:34.819Z,85
2016-07-20T09:52:33.561Z,85
2016-07-20T09:53:32.004Z,80
2016-07-20T09:54:33.435Z,80
2016-07-20T09:55:32.016Z,80
2016-07-20T09:56:32.736Z,80
2016-07-20T09:57:34.200Z,80
2016-07-20T09:58:34.217Z,95
2016-07-20T09:59:32.812Z,80
2016-07-20T10:00:33.478Z,85
2016-07-20T10:01:35.130Z,100
2016-07-20T10:02:34.244Z,90
2016-07-20T10:03:34.546Z,85
2016-07-20T10:04:34.205Z,80
2016-07-20T10:05:32.791Z,80
2016-07-20T10:06:33.512Z,80
2016-07-20T10:07:32.808Z,80
2016-07-20T10:08:33.527Z,95
2016-07-20T10:09:34.243Z,95
2016-07-20T10:10:32.121Z,80
2016-07-20T10:11:33.543Z,80
2016-07-20T10:12:35.499Z,80
2016-07-20T10:13:34.263Z,90
2016-07-20T10:14:35.019Z,90
2016-07-20T10:15:33.567Z,80
2016-07-20T10:16:33.572Z,80
2016-07-20T10:17:32.882Z,80
2016-07-20T10:18:32.886Z,80
2016-07-20T10:19:33.609Z,80
2016-07-20T10:20:35.026Z,80
2016-07-20T10:21:34.335Z,80
2016-07-20T10:22:33.624Z,75
2016-07-20T10:23:35.183Z,80
2016-07-20T10:24:34.345Z,90
2016-07-20T10:25:34.999Z,75
2016-07-20T10:26:34.358Z,75
2016-07-20T10:27:33.664Z,75
2016-07-20T10:28:34.372Z,75
2016-07-20T10:29:34.379Z,75
2016-07-20T10:30:34.391Z,75
2016-07-20T10:31:34.412Z,75
2016-07-20T10:32:34.404Z,90
2016-07-20T10:33:34.416Z,90
2016-07-20T10:34:36.217Z,95
2016-07-20T10:35:34.425Z,75
2016-07-20T10:36:32.510Z,75
2016-07-20T10:37:33.019Z,80
2016-07-20T10:38:34.446Z,75
2016-07-20T10:39:33.033Z,75
2016-07-20T10:40:33.043Z,80
2016-07-20T10:41:33.068Z,80
2016-07-20T10:42:35.182Z,75
2016-07-20T10:43:34.487Z,75
2016-07-20T10:44:33.792Z,80
2016-07-20T10:45:35.878Z,85
2016-07-20T10:46:33.084Z,90
2016-07-20T10:47:35.674Z,85
2016-07-20T10:48:34.518Z,75
2016-07-20T10:49:34.528Z,75
2016-07-20T10:50:34.558Z,75
2016-07-20T10:51:34.534Z,70
2016-07-20T10:52:33.131Z,75
2016-07-20T10:53:34.554Z,70
2016-07-20T10:54:48.726Z,85
2016-07-20T10:55:34.557Z,85
2016-07-20T10:56:34.016Z,85
2016-07-20T10:57:33.160Z,85
2016-07-20T10:58:33.885Z,85
2016-07-20T10:59:33.976Z,80
2016-07-20T11:00:35.351Z,70
2016-07-20T11:01:32.481Z,80
2016-07-20T11:02:35.530Z,80
2016-07-20T11:03:32.499Z,80
2016-07-20T11:04:33.913Z,70
2016-07-20T11:05:33.980Z,70
2016-07-20T11:06:33.926Z,70
2016-07-20T11:07:34.184Z,70
2016-07-20T11:08:34.646Z,80
2016-07-20T11:09:36.079Z,80
2016-07-20T11:10:35.371Z,80
2016-07-20T11:11:33.961Z,80
2016-07-20T11:12:34.669Z,80
2016-07-20T11:13:33.283Z,70
2016-07-20T11:14:34.686Z,75
2016-07-20T11:15:34.702Z,80
2016-07-20T11:16:33.995Z,75
2016-07-20T11:17:34.903Z,70
2016-07-20T11:18:34.985Z,70
2016-07-20T11:19:34.723Z,70
2016-07-20T11:20:33.314Z,70
2016-07-20T11:21:34.735Z,70
2016-07-20T11:22:34.038Z,80
2016-07-20T11:23:34.045Z,70
2016-07-20T11:24:34.763Z,80
2016-07-20T11:25:34.755Z,80
2016-07-20T11:26:35.474Z,80
2016-07-20T11:27:33.361Z,80
2016-07-20T11:28:33.365Z,80
2016-07-20T11:29:35.181Z,70
2016-07-20T11:30:35.501Z,65
2016-07-20T11:31:36.583Z,70
2016-07-20T11:32:34.101Z,75
2016-07-20T11:33:34.104Z,80
2016-07-20T11:34:33.408Z,75
2016-07-20T11:35:33.416Z,65
2016-07-20T11:36:35.564Z,65
2016-07-20T11:37:33.422Z,70
2016-07-20T11:38:34.844Z,65
2016-07-20T11:39:34.847Z,65
2016-07-20T11:40:34.942Z,70
2016-07-20T11:41:34.150Z,65
2016-07-20T11:42:34.564Z,65
2016-07-20T11:43:34.884Z,65
2016-07-20T11:44:35.636Z,60
2016-07-20T11:45:33.477Z,65
2016-07-20T11:46:33.495Z,65
2016-07-20T11:47:34.900Z,65
2016-07-20T11:48:34.913Z,65
2016-07-20T11:49:34.916Z,65
2016-07-20T11:50:34.223Z,65
2016-07-20T11:51:35.023Z,65
2016-07-20T11:52:35.651Z,60
2016-07-20T11:53:34.593Z,60
2016-07-20T11:54:34.963Z,75
2016-07-20T11:55:33.558Z,70
2016-07-20T11:56:34.268Z,70
2016-07-20T11:57:34.990Z,70
2016-07-20T11:58:35.707Z,70
2016-07-20T11:59:35.763Z,70
2016-07-20T12:00:35.061Z,70
2016-07-20T12:01:34.366Z,70
2016-07-20T12:02:35.271Z,70
2016-07-20T12:03:35.106Z,70
2016-07-20T12:04:34.881Z,70
2016-07-20T12:05:33.637Z,70
2016-07-20T12:06:35.053Z,70
2016-07-20T12:07:34.358Z,70
2016-07-20T12:08:34.371Z,70
2016-07-20T12:09:34.380Z,65
2016-07-20T12:10:33.668Z,65
2016-07-20T12:11:35.804Z,65
2016-07-20T12:12:34.389Z,65
2016-07-20T12:13:35.424Z,65
2016-07-20T12:14:34.417Z,65
2016-07-20T12:15:35.117Z,65
2016-07-20T12:16:35.828Z,65
2016-07-20T12:17:35.838Z,65
2016-07-20T12:18:35.138Z,65
2016-07-20T12:19:34.436Z,65
2016-07-20T12:20:34.489Z,65
2016-07-20T12:21:33.811Z,70
2016-07-20T12:22:35.163Z,65
2016-07-20T12:23:34.460Z,65
2016-07-20T12:24:35.889Z,65
2016-07-20T12:25:34.478Z,65
2016-07-20T12:26:35.486Z,65
2016-07-20T12:27:35.895Z,65
2016-07-20T12:28:34.490Z,60
2016-07-20T12:29:33.796Z,60
2016-07-20T12:30:35.212Z,65
2016-07-20T12:31:35.292Z,65
2016-07-20T12:32:33.113Z,60
2016-07-20T12:33:35.931Z,60
2016-07-20T12:34:34.518Z,60
2016-07-20T12:35:37.094Z,60
2016-07-20T12:36:35.245Z,60
2016-07-20T12:37:33.835Z,60
2016-07-20T12:38:35.964Z,60
2016-07-20T12:39:34.556Z,60
2016-07-20T12:40:35.270Z,60
2016-07-20T12:41:35.285Z,60
2016-07-20T12:42:34.577Z,60
2016-07-20T12:43:34.585Z,60
2016-07-20T12:44:34.037Z,60
2016-07-20T12:45:36.038Z,60
2016-07-20T12:46:34.610Z,60
2016-07-20T12:47:35.333Z,60
2016-07-20T12:48:35.598Z,60
2016-07-20T12:49:33.927Z,60
2016-07-20T12:50:35.343Z,60
2016-07-20T12:51:35.536Z,60
2016-07-20T12:52:35.358Z,60
2016-07-20T12:53:35.369Z,60
2016-07-20T12:54:33.998Z,60
2016-07-20T12:55:36.442Z,60
2016-07-20T12:56:34.686Z,60
2016-07-20T12:57:35.500Z,60
2016-07-20T12:58:36.115Z,55
2016-07-20T12:59:36.002Z,60
2016-07-20T13:00:34.813Z,55
2016-07-20T13:01:34.030Z,60
2016-07-20T13:02:35.753Z,60
2016-07-20T13:03:35.144Z,60
2016-07-20T13:04:36.167Z,60
2016-07-20T13:05:34.053Z,60
2016-07-20T13:06:35.367Z,60
2016-07-20T13:07:35.542Z,60
2016-07-20T13:08:37.368Z,60
2016-07-20T13:09:34.079Z,60
2016-07-20T13:10:37.042Z,55
2016-07-20T13:11:35.571Z,55
2016-07-20T13:12:34.813Z,55
2016-07-20T13:13:34.130Z,55
2016-07-20T13:14:35.533Z,55
2016-07-20T13:15:34.853Z,55
2016-07-20T13:16:34.842Z,55
2016-07-20T13:17:35.932Z,55
2016-07-20T13:18:34.163Z,55
2016-07-20T13:19:35.607Z,55
2016-07-20T13:20:35.589Z,55
2016-07-20T13:21:37.405Z,55
2016-07-20T13:22:34.295Z,55
2016-07-20T13:23:35.608Z,55
2016-07-20T13:24:34.912Z,55
2016-07-20T13:25:34.970Z,55
2016-07-20T13:26:36.340Z,55
2016-07-20T13:27:35.638Z,55
2016-07-20T13:28:36.123Z,55
2016-07-20T13:29:34.242Z,55
2016-07-20T13:30:35.110Z,55
2016-07-20T13:31:35.672Z,55
2016-07-20T13:32:37.667Z,55
2016-07-20T13:33:34.985Z,55
2016-07-20T13:34:34.279Z,55
2016-07-20T13:35:35.704Z,55
2016-07-20T13:36:35.015Z,55
2016-07-20T13:37:36.430Z,55
2016-07-20T13:38:35.729Z,55
2016-07-20T13:39:36.920Z,55
2016-07-20T13:40:35.868Z,55
2016-07-20T13:41:35.348Z,55
2016-07-20T13:42:35.766Z,55
2016-07-20T13:43:35.063Z,55
2016-07-20T13:44:35.779Z,55
2016-07-20T13:45:36.497Z,55
2016-07-20T13:46:35.092Z,55
2016-07-20T13:47:35.096Z,55
2016-07-20T13:48:35.111Z,55
2016-07-20T13:49:35.822Z,55
2016-07-20T13:50:34.419Z,55
2016-07-20T13:51:35.837Z,55
2016-07-20T13:52:35.866Z,55
2016-07-20T13:53:35.147Z,55
2016-07-20T13:54:38.365Z,55
2016-07-20T13:55:35.174Z,55
2016-07-20T13:56:35.188Z,55
2016-07-20T13:57:36.597Z,55
2016-07-20T13:58:35.892Z,55
2016-07-20T13:59:35.225Z,55
2016-07-20T14:00:35.988Z,55
2016-07-20T14:01:35.922Z,55
2016-07-20T14:02:36.090Z,55
2016-07-20T14:03:36.233Z,55
2016-07-20T14:04:35.241Z,55
2016-07-20T14:05:36.724Z,55
2016-07-20T14:06:35.322Z,55
2016-07-20T14:07:35.263Z,55
2016-07-20T14:08:35.277Z,55
2016-07-20T14:09:35.993Z,55
2016-07-20T14:10:34.590Z,55
2016-07-20T14:11:36.724Z,55
2016-07-20T14:12:35.580Z,50
2016-07-20T14:13:36.739Z,55
2016-07-20T14:14:37.025Z,55